Time;durP1;ratioP1;P1;durP2;ratioP2;P2;SDS_P1;SDS_P2;PMS_P1;PMS_P2;Temp;Humidity;BMP_temperature;BMP_pressure;BME280_temperature;BME280_humidity;BME280_pressure;Samples;Min_cycle;Max_cycle;Signal;HPM_P1;HPM_P2
2022/05/01 00:05:18;;;;;;;11.17;6.63;;;8.70;99.90;;;;;;6764719;87;20779;-81
2022/05/01 00:15:20;;;;;;;12.25;6.78;;;8.40;99.90;;;;;;6766308;87;20507;-81
2022/05/01 00:25:20;;;;;;;11.45;6.97;;;8.40;99.90;;;;;;6766862;87;20210;-81
2022/05/01 00:45:41;;;;;;;13.90;7.40;;;8.20;99.90;;;;;;6730244;88;20217;-82
2022/05/01 00:55:42;;;;;;;12.77;7.90;;;8.10;99.90;;;;;;6733119;88;20190;-81
2022/05/01 01:05:44;;;;;;;13.88;7.62;;;7.90;99.90;;;;;;6762646;87;20162;-81
2022/05/01 01:15:45;;;;;;;14.60;7.03;;;8.00;99.90;;;;;;6768976;87;20216;-81
2022/05/01 01:25:46;;;;;;;13.95;7.72;;;8.20;99.90;;;;;;6768870;87;20346;-81
2022/05/01 01:35:49;;;;;;;12.85;7.32;;;8.00;99.90;;;;;;6768773;87;20204;-82
2022/05/01 01:45:50;;;;;;;13.88;7.75;;;7.80;99.90;;;;;;6768645;87;20200;-81
2022/05/01 01:55:51;;;;;;;12.73;7.68;;;7.50;99.90;;;;;;6768452;87;20173;-81
2022/05/01 02:05:52;;;;;;;12.02;6.70;;;7.80;99.90;;;;;;6766343;88;20144;-81
2022/05/01 02:15:52;;;;;;;12.00;7.28;;;7.40;99.90;;;;;;6766102;88;20887;-81
2022/05/01 02:25:53;;;;;;;12.90;7.22;;;7.50;99.90;;;;;;6765810;88;20187;-81
2022/05/01 02:35:54;;;;;;;12.85;7.75;;;7.60;99.90;;;;;;6767698;87;20189;-82
2022/05/01 02:45:54;;;;;;;17.27;8.35;;;7.10;99.90;;;;;;6768271;87;20207;-81
2022/05/01 02:55:55;;;;;;;14.18;8.68;;;6.80;99.90;;;;;;6768055;87;20910;-81
2022/05/01 03:05:58;;;;;;;14.50;8.98;;;6.90;99.90;;;;;;6731383;88;20150;-81
2022/05/01 03:16:00;;;;;;;14.90;9.02;;;7.00;99.90;;;;;;6731105;88;20229;-81
2022/05/01 03:26:00;;;;;;;15.25;8.65;;;7.20;99.90;;;;;;6731476;88;20318;-81
2022/05/01 03:36:05;;;;;;;14.45;8.50;;;6.90;99.90;;;;;;6760279;87;20931;-80
2022/05/01 03:46:05;;;;;;;15.80;8.95;;;6.90;99.90;;;;;;6767592;87;20160;-81
2022/05/01 03:56:06;;;;;;;16.52;9.45;;;6.60;99.90;;;;;;6767366;87;20922;-81
2022/05/01 04:06:07;;;;;;;16.90;10.38;;;6.80;99.90;;;;;;6766062;87;20237;-81
2022/05/01 04:16:07;;;;;;;17.45;10.05;;;6.50;99.90;;;;;;6767124;87;20174;-80
2022/05/01 04:26:08;;;;;;;16.77;9.90;;;6.60;99.90;;;;;;6749409;88;20195;-81
2022/05/01 04:36:08;;;;;;;17.17;9.77;;;6.60;99.90;;;;;;6750524;88;20304;-81
2022/05/01 04:46:09;;;;;;;17.67;10.15;;;6.80;99.90;;;;;;6750576;88;20188;-82
2022/05/01 05:06:29;;;;;;;19.50;10.80;;;7.40;99.90;;;;;;6769455;88;20407;-81
2022/05/01 05:16:30;;;;;;;20.85;10.88;;;7.20;99.90;;;;;;6767030;87;20187;-81
2022/05/01 05:26:31;;;;;;;18.30;10.35;;;7.40;99.90;;;;;;6767062;87;20896;-83
2022/05/01 05:36:31;;;;;;;20.65;11.05;;;7.60;99.90;;;;;;6766642;87;20186;-81
2022/05/01 05:46:32;;;;;;;17.98;10.82;;;7.80;99.90;;;;;;6768549;87;20191;-81
2022/05/01 05:56:33;;;;;;;18.12;10.60;;;8.00;99.90;;;;;;6768724;87;21073;-82
2022/05/01 06:06:34;;;;;;;21.42;11.05;;;8.30;99.90;;;;;;6768331;87;20173;-82
2022/05/01 06:16:35;;;;;;;17.48;10.45;;;8.40;99.90;;;;;;6768571;87;20181;-81
2022/05/01 06:26:35;;;;;;;20.67;10.95;;;8.40;99.90;;;;;;6768089;87;20206;-81
2022/05/01 06:36:36;;;;;;;19.92;10.98;;;8.50;99.90;;;;;;6768225;87;21037;-81
2022/05/01 06:46:37;;;;;;;20.20;10.50;;;9.00;99.90;;;;;;6767843;87;20834;-82
2022/05/01 06:56:41;;;;;;;23.38;11.05;;;9.20;99.90;;;;;;6768068;87;20192;-80
2022/05/01 07:12:10;;;;;;;18.67;11.40;;;9.10;99.90;;;;;;6828333;86;20850;-81
2022/05/01 07:22:13;;;;;;;18.95;10.45;;;9.50;99.90;;;;;;6816621;87;20173;-83
2022/05/01 07:32:14;;;;;;;21.12;11.43;;;10.30;99.90;;;;;;6816611;87;20148;-84
2022/05/01 07:42:14;;;;;;;20.02;11.75;;;10.70;99.90;;;;;;6762135;88;20184;-82
2022/05/01 07:52:16;;;;;;;18.77;11.65;;;10.70;99.90;;;;;;6744280;88;20216;-82
2022/05/01 08:12:20;;;;;;;17.27;11.20;;;12.80;99.90;;;;;;6741241;88;20162;-82
2022/05/01 08:22:21;;;;;;;16.25;10.13;;;13.40;99.90;;;;;;6686278;88;20332;-82
2022/05/01 08:32:21;;;;;;;15.65;10.80;;;14.30;99.90;;;;;;6664954;89;20199;-82
2022/05/01 08:42:24;;;;;;;16.87;11.70;;;14.50;99.90;;;;;;6664752;89;20194;-84
2022/05/01 08:52:26;;;;;;;17.77;12.40;;;14.20;99.90;;;;;;6657698;89;20546;-83
2022/05/01 09:22:53;;;;;;;14.38;10.55;;;14.90;99.90;;;;;;6693909;88;20190;-83
2022/05/01 09:33:34;;;;;;;13.20;8.82;;;15.70;99.90;;;;;;6783856;77;20180;-87
2022/05/01 10:03:42;;;;;;;10.88;7.05;;;18.00;96.90;;;;;;6685382;88;20201;-86
2022/05/01 10:14:04;;;;;;;8.05;5.80;;;19.00;93.30;;;;;;6954987;77;20207;-88
2022/05/01 10:24:26;;;;;;;9.18;5.93;;;20.50;90.50;;;;;;6736318;77;20173;-87
2022/05/01 10:34:51;;;;;;;7.75;5.30;;;21.30;87.40;;;;;;6645602;88;20181;-86
2022/05/01 10:44:52;;;;;;;7.78;5.43;;;20.50;86.50;;;;;;6645077;88;20268;-86
2022/05/01 10:55:14;;;;;;;9.20;5.25;;;22.10;83.20;;;;;;6632385;78;20270;-78
2022/05/01 11:05:54;;;;;;;9.52;5.40;;;22.00;81.10;;;;;;6624628;88;20261;-77
2022/05/01 11:15:55;;;;;;;6.28;4.82;;;21.90;79.70;;;;;;6621947;89;20352;-79
2022/05/01 11:26:17;;;;;;;8.07;4.97;;;22.00;78.80;;;;;;6638675;88;20205;-78
2022/05/01 11:36:17;;;;;;;8.25;4.50;;;22.60;77.30;;;;;;6623736;88;20264;-80
2022/05/01 11:46:18;;;;;;;9.95;5.40;;;22.70;77.40;;;;;;6625335;88;20202;-81
2022/05/01 12:06:42;;;;;;;9.68;5.32;;;20.90;78.80;;;;;;6622002;88;20216;-80
2022/05/01 12:16:46;;;;;;;6.22;5.03;;;20.70;79.00;;;;;;6645681;88;20191;-79
2022/05/01 12:26:50;;;;;;;7.23;5.37;;;20.70;78.60;;;;;;6632176;88;20236;-79
2022/05/01 12:36:58;;;;;;;8.52;5.35;;;20.40;78.40;;;;;;6626959;88;20198;-77
2022/05/01 12:46:59;;;;;;;8.18;5.10;;;19.60;78.40;;;;;;6627857;88;20756;-79
2022/05/01 12:56:59;;;;;;;8.25;5.30;;;19.10;80.50;;;;;;6641477;89;20253;-79
2022/05/01 13:07:00;;;;;;;6.78;5.35;;;18.90;81.30;;;;;;6633399;88;20193;-78
2022/05/01 13:17:12;;;;;;;6.97;5.43;;;19.10;80.70;;;;;;6625332;89;20198;-79
2022/05/01 13:27:13;;;;;;;7.65;5.00;;;18.20;81.80;;;;;;6630196;88;20213;-79
2022/05/01 13:37:14;;;;;;;7.87;5.63;;;18.80;81.10;;;;;;6637102;89;20207;-78
2022/05/01 13:47:16;;;;;;;8.77;5.65;;;20.00;79.30;;;;;;6633016;88;20359;-80
2022/05/01 13:57:19;;;;;;;9.13;6.03;;;20.10;78.00;;;;;;6632748;89;20218;-80
2022/05/01 14:07:20;;;;;;;10.07;6.20;;;19.30;79.60;;;;;;6634329;89;20223;-80
2022/05/01 14:17:20;;;;;;;9.23;5.28;;;19.40;78.00;;;;;;6634591;89;20173;-80
2022/05/01 14:27:21;;;;;;;6.85;5.62;;;19.30;79.70;;;;;;6651695;89;20193;-80
2022/05/01 14:37:38;;;;;;;8.82;5.35;;;19.30;80.10;;;;;;6649833;89;20226;-80
2022/05/01 14:48:06;;;;;;;8.65;5.90;;;18.70;79.70;;;;;;6641579;89;20350;-80
2022/05/01 15:06:17;;;;;;;9.23;5.60;;;18.50;80.30;;;;;;6634533;89;20596;-80
2022/05/01 15:08:30;;;;;;;6.93;5.12;;;18.40;81.70;;;;;;6722490;88;20178;-82
2022/05/01 15:18:49;;;;;;;7.78;4.95;;;19.40;80.80;;;;;;6639259;88;20208;-83
2022/05/01 15:39:58;;;;;;;8.20;5.30;;;19.60;78.90;;;;;;6660904;88;20187;-80
2022/05/01 16:00:21;;;;;;;9.02;5.50;;;18.50;81.50;;;;;;6647723;88;20158;-82
2022/05/01 16:10:34;;;;;;;9.15;6.07;;;18.10;81.50;;;;;;6647216;88;20206;-80
2022/05/01 16:20:38;;;;;;;7.95;5.53;;;17.70;83.30;;;;;;6648219;88;20158;-82
2022/05/01 16:30:48;;;;;;;8.87;5.20;;;17.40;83.30;;;;;;6646525;88;20162;-81
2022/05/01 16:40:53;;;;;;;8.50;5.35;;;16.80;84.70;;;;;;6643940;88;20248;-80
2022/05/01 17:01:00;;;;;;;29.92;15.55;;;16.70;85.90;;;;;;6757542;88;20537;-80
2022/05/01 17:11:08;;;;;;;9.63;6.30;;;16.20;87.50;;;;;;6754099;88;20198;-82
2022/05/01 17:21:16;;;;;;;7.95;5.82;;;16.10;88.50;;;;;;6740658;88;20670;-83
2022/05/01 17:31:19;;;;;;;9.77;6.40;;;16.20;89.20;;;;;;6740798;88;20338;-80
2022/05/01 17:41:26;;;;;;;8.77;6.03;;;16.30;88.70;;;;;;6738054;88;20194;-80
2022/05/01 17:51:27;;;;;;;11.25;6.68;;;16.10;90.10;;;;;;6732139;88;20208;-81
2022/05/01 18:01:50;;;;;;;12.10;6.68;;;15.70;90.70;;;;;;6737136;88;20206;-84
2022/05/01 18:12:21;;;;;;;12.20;6.60;;;15.40;91.70;;;;;;6746173;88;20178;-84
2022/05/01 18:22:33;;;;;;;11.75;6.80;;;15.30;92.30;;;;;;6749614;88;20153;-83
2022/05/01 18:32:55;;;;;;;10.80;7.22;;;15.00;93.10;;;;;;6746413;88;20737;-83
2022/05/01 18:42:58;;;;;;;15.43;8.77;;;14.90;93.80;;;;;;6729096;88;20174;-83
2022/05/01 18:53:02;;;;;;;12.02;7.68;;;14.70;94.70;;;;;;6723542;88;20197;-81
2022/05/01 19:03:04;;;;;;;11.27;7.57;;;14.30;95.60;;;;;;6740789;88;20184;-81
2022/05/01 19:13:23;;;;;;;12.80;7.30;;;14.10;96.90;;;;;;6744065;88;20189;-81
2022/05/01 19:26:18;;;;;;;12.57;8.68;;;14.00;97.50;;;;;;6744008;88;20179;-82
2022/05/01 19:34:07;;;;;;;11.68;8.02;;;13.90;98.40;;;;;;6706398;88;20813;-81
2022/05/01 19:44:37;;;;;;;16.27;9.40;;;13.70;99.70;;;;;;6721026;88;20265;-80
2022/05/01 19:54:42;;;;;;;12.57;7.95;;;13.40;99.90;;;;;;6729413;88;20298;-80
2022/05/01 20:04:43;;;;;;;9.67;7.23;;;13.20;99.90;;;;;;6726527;88;20198;-80
2022/05/01 20:14:44;;;;;;;12.60;8.18;;;13.00;99.90;;;;;;6722003;88;20210;-80
2022/05/01 20:25:09;;;;;;;10.53;7.50;;;12.80;99.90;;;;;;6728097;88;20313;-79
2022/05/01 20:35:18;;;;;;;12.40;8.10;;;12.70;99.90;;;;;;6724841;88;21278;-79
2022/05/01 20:45:26;;;;;;;13.85;7.68;;;12.60;99.90;;;;;;6729324;88;20275;-80
2022/05/01 20:55:28;;;;;;;12.70;8.07;;;12.50;99.90;;;;;;6724578;88;20232;-79
2022/05/01 21:05:29;;;;;;;12.15;8.40;;;12.30;99.90;;;;;;6728617;88;20680;-79
2022/05/01 21:15:32;;;;;;;10.68;7.60;;;12.10;99.90;;;;;;6728317;88;20246;-80
2022/05/01 21:25:32;;;;;;;10.10;7.45;;;12.20;99.90;;;;;;6729580;88;20701;-80
2022/05/01 21:35:33;;;;;;;10.98;7.30;;;12.20;99.90;;;;;;6741611;88;20165;-83
2022/05/01 21:45:33;;;;;;;13.55;8.10;;;12.20;99.90;;;;;;6746945;88;20209;-82
2022/05/01 21:55:35;;;;;;;13.05;7.80;;;12.30;99.90;;;;;;6750684;88;20246;-83
2022/05/01 22:05:36;;;;;;;11.98;6.68;;;12.30;99.90;;;;;;6750573;88;20227;-83
2022/05/01 22:15:36;;;;;;;12.00;7.00;;;12.40;99.90;;;;;;6750543;88;20165;-83
2022/05/01 22:25:37;;;;;;;11.02;6.57;;;12.50;99.90;;;;;;6766159;88;20201;-84
2022/05/01 22:45:56;;;;;;;9.43;6.70;;;12.50;99.90;;;;;;6767390;88;20161;-84
2022/05/01 22:55:57;;;;;;;11.20;6.43;;;12.40;99.90;;;;;;6691548;77;20228;-77
2022/05/01 23:05:57;;;;;;;10.00;6.62;;;12.30;99.90;;;;;;6652336;89;20230;-77
2022/05/01 23:15:58;;;;;;;10.07;7.15;;;11.80;99.90;;;;;;6641234;89;20941;-77
2022/05/01 23:25:59;;;;;;;13.20;7.37;;;11.70;99.90;;;;;;6650889;89;20370;-77
2022/05/01 23:36:00;;;;;;;11.52;7.78;;;11.50;99.90;;;;;;6649063;89;20215;-78
2022/05/01 23:46:00;;;;;;;11.53;7.80;;;11.30;99.90;;;;;;6667009;88;20207;-78
2022/05/01 23:56:01;;;;;;;13.88;7.57;;;11.20;99.90;;;;;;6654215;89;20713;-77
